Time;durP1;ratioP1;P1;durP2;ratioP2;P2;SDS_P1;SDS_P2;PMS_P1;PMS_P2;Temp;Humidity;BMP_temperature;BMP_pressure;BME280_temperature;BME280_humidity;BME280_pressure;Samples;Min_cycle;Max_cycle;Signal;HPM_P1;HPM_P2
2023/06/01 00:01:04;;;;;;;15.77;5.32;;;;;;;;;;5017843;28;20134;-84
2023/06/01 00:03:30;;;;;;;13.93;5.05;;;;;;;;;;4993539;28;20123;-84
2023/06/01 00:05:56;;;;;;;10.95;5.05;;;;;;;;;;5005036;28;20172;-84
2023/06/01 00:08:22;;;;;;;9.85;5.30;;;;;;;;;;4988210;28;20069;-85
2023/06/01 00:10:52;;;;;;;13.23;5.82;;;;;;;;;;5013145;28;20034;-84
2023/06/01 00:13:18;;;;;;;12.88;5.63;;;;;;;;;;4995173;28;20042;-84
2023/06/01 00:15:45;;;;;;;12.13;4.88;;;;;;;;;;4989747;28;20042;-84
2023/06/01 00:18:12;;;;;;;14.57;5.97;;;;;;;;;;4996414;28;20059;-84
2023/06/01 00:20:39;;;;;;;15.57;5.68;;;;;;;;;;4995832;28;20050;-84
2023/06/01 00:23:06;;;;;;;13.07;5.68;;;;;;;;;;4995566;28;20140;-85
2023/06/01 00:25:32;;;;;;;12.40;5.43;;;;;;;;;;5011845;28;20514;-84
2023/06/01 00:27:58;;;;;;;13.60;5.55;;;;;;;;;;5000854;28;20041;-85
2023/06/01 00:30:24;;;;;;;11.07;5.32;;;;;;;;;;4996447;28;20447;-84
2023/06/01 00:32:50;;;;;;;12.43;6.40;;;;;;;;;;5013380;28;20104;-85
2023/06/01 00:35:16;;;;;;;18.30;6.45;;;;;;;;;;5013680;28;20125;-84
2023/06/01 00:37:42;;;;;;;11.93;6.22;;;;;;;;;;4993770;28;20230;-84
2023/06/01 00:40:08;;;;;;;14.13;5.80;;;;;;;;;;4989957;28;20045;-84
2023/06/01 00:42:34;;;;;;;12.85;5.88;;;;;;;;;;5014201;28;20056;-84
2023/06/01 00:45:00;;;;;;;11.88;6.05;;;;;;;;;;5007978;28;20072;-85
2023/06/01 00:47:26;;;;;;;11.13;5.97;;;;;;;;;;4981476;28;20079;-84
2023/06/01 00:49:52;;;;;;;13.18;6.20;;;;;;;;;;5008464;28;20038;-83
2023/06/01 00:52:18;;;;;;;16.20;6.57;;;;;;;;;;5003301;28;20068;-85
2023/06/01 00:54:45;;;;;;;9.15;5.22;;;;;;;;;;5013734;28;20044;-84
2023/06/01 00:57:10;;;;;;;15.20;6.53;;;;;;;;;;5018853;28;20042;-83
2023/06/01 00:59:37;;;;;;;17.35;7.75;;;;;;;;;;4991675;28;20041;-84
2023/06/01 01:02:04;;;;;;;15.25;6.72;;;;;;;;;;4978755;28;20049;-85
2023/06/01 01:04:30;;;;;;;16.52;6.85;;;;;;;;;;4999694;28;20049;-83
2023/06/01 01:07:20;;;;;;;11.95;6.05;;;12.10;99.90;;;;;;4993511;28;20068;-84
2023/06/01 01:09:54;;;;;;;14.77;6.15;;;;;;;;;;4993442;28;20515;-84
2023/06/01 01:12:27;;;;;;;14.98;6.40;;;;;;;;;;4996798;28;20049;-84
2023/06/01 01:15:01;;;;;;;15.07;6.03;;;12.40;99.90;;;;;;5002690;28;20075;-84
2023/06/01 01:17:46;;;;;;;12.55;5.70;;;12.10;99.90;;;;;;5007058;28;20797;-84
2023/06/01 01:20:15;;;;;;;15.02;5.20;;;;;;;;;;5010686;28;20534;-83
2023/06/01 01:22:41;;;;;;;16.83;6.07;;;;;;;;;;4991207;28;20105;-84
2023/06/01 01:25:45;;;;;;;12.52;5.40;;;12.20;99.90;;;;;;5010151;28;20835;-84
2023/06/01 01:28:30;;;;;;;14.00;5.50;;;;;;;;;;4994129;28;20052;-85
2023/06/01 01:30:57;;;;;;;13.45;5.50;;;;;;;;;;4974950;28;20081;-84
2023/06/01 01:33:23;;;;;;;15.60;5.10;;;;;;;;;;5003508;28;20064;-84
2023/06/01 01:35:50;;;;;;;14.18;5.95;;;;;;;;;;4999604;28;20041;-84
2023/06/01 01:38:16;;;;;;;15.43;5.85;;;;;;;;;;5014264;28;20050;-84
2023/06/01 01:40:42;;;;;;;16.38;6.28;;;;;;;;;;5021210;28;20090;-84
2023/06/01 01:43:08;;;;;;;13.50;6.25;;;;;;;;;;5002454;28;20447;-84
2023/06/01 01:45:35;;;;;;;15.05;6.78;;;;;;;;;;4998894;28;20050;-84
2023/06/01 01:48:09;;;;;;;14.52;5.78;;;12.10;99.90;;;;;;5001642;28;20486;-84
2023/06/01 01:50:42;;;;;;;16.55;7.10;;;;;;;;;;5021488;28;20081;-85
2023/06/01 01:53:09;;;;;;;11.80;5.22;;;12.20;99.90;;;;;;5024979;28;20060;-83
2023/06/01 01:55:36;;;;;;;11.50;5.50;;;12.10;99.90;;;;;;4999986;28;20766;-84
2023/06/01 01:58:03;;;;;;;13.82;5.68;;;;;;;;;;5007330;28;20448;-83
2023/06/01 02:00:31;;;;;;;11.85;6.00;;;;;;;;;;5006888;28;21053;-84
2023/06/01 02:02:57;;;;;;;13.70;6.22;;;;;;;;;;4986617;28;20038;-84
2023/06/01 02:05:23;;;;;;;11.48;5.95;;;;;;;;;;5002810;28;20784;-84
2023/06/01 02:07:49;;;;;;;14.35;5.85;;;;;;;;;;5005980;28;20049;-84
2023/06/01 02:10:15;;;;;;;16.67;6.65;;;;;;;;;;4992134;28;20466;-83
2023/06/01 02:12:41;;;;;;;15.57;6.20;;;;;;;;;;4985505;28;20030;-84
2023/06/01 02:15:07;;;;;;;16.30;6.15;;;;;;;;;;5008881;28;20476;-85
2023/06/01 02:17:33;;;;;;;9.40;5.30;;;;;;;;;;5017875;28;20045;-83
2023/06/01 02:19:59;;;;;;;14.57;5.32;;;;;;;;;;4999979;28;20410;-84
2023/06/01 02:22:25;;;;;;;16.17;5.50;;;;;;;;;;5012956;28;20057;-84
2023/06/01 02:24:51;;;;;;;10.52;5.22;;;;;;;;;;5008126;28;20048;-83
2023/06/01 02:27:17;;;;;;;16.65;6.20;;;;;;;;;;5010349;28;20045;-83
2023/06/01 02:29:43;;;;;;;16.83;6.10;;;;;;;;;;5000054;28;20585;-84
2023/06/01 02:32:09;;;;;;;12.77;5.35;;;;;;;;;;5017187;28;20041;-84
2023/06/01 02:34:36;;;;;;;11.30;5.70;;;;;;;;;;5000049;28;20049;-84
2023/06/01 02:37:04;;;;;;;14.95;5.85;;;;;;;;;;4998777;28;20075;-84
2023/06/01 02:39:30;;;;;;;12.70;5.97;;;;;;;;;;5021960;28;20103;-84
2023/06/01 02:41:56;;;;;;;11.73;5.45;;;;;;;;;;4979345;28;20053;-84
2023/06/01 02:44:22;;;;;;;14.70;5.72;;;;;;;;;;5007622;28;20415;-84
2023/06/01 02:46:48;;;;;;;12.85;4.88;;;;;;;;;;4993333;28;20034;-84
2023/06/01 02:49:14;;;;;;;7.97;4.70;;;;;;;;;;5007355;28;20046;-84
2023/06/01 02:51:40;;;;;;;10.15;5.03;;;;;;;;;;4988256;28;20132;-84
2023/06/01 02:54:06;;;;;;;13.45;5.25;;;;;;;;;;4995175;28;20045;-84
2023/06/01 02:56:32;;;;;;;9.20;5.63;;;;;;;;;;5022078;28;20041;-84
2023/06/01 02:58:58;;;;;;;12.18;5.28;;;;;;;;;;5000695;28;20116;-85
2023/06/01 03:01:24;;;;;;;13.05;5.22;;;;;;;;;;5000307;28;20033;-83
2023/06/01 03:03:52;;;;;;;10.32;4.57;;;;;;;;;;4992021;28;20046;-84
2023/06/01 03:06:21;;;;;;;8.13;4.55;;;;;;;;;;4997628;28;20041;-85
2023/06/01 03:08:47;;;;;;;12.00;5.30;;;;;;;;;;4994681;28;20033;-84
2023/06/01 03:11:13;;;;;;;9.68;5.30;;;;;;;;;;5017944;28;20160;-84
2023/06/01 03:13:39;;;;;;;10.13;4.80;;;;;;;;;;5004406;28;20407;-84
2023/06/01 03:16:05;;;;;;;10.00;5.00;;;;;;;;;;4998213;28;20085;-84
2023/06/01 03:18:31;;;;;;;9.70;4.25;;;;;;;;;;5005140;28;20495;-82
2023/06/01 03:20:57;;;;;;;11.52;4.50;;;;;;;;;;5001491;28;20045;-84
2023/06/01 03:23:23;;;;;;;12.13;5.35;;;;;;;;;;5021163;28;20132;-84
2023/06/01 03:25:50;;;;;;;12.85;4.45;;;;;;;;;;4997053;28;20192;-84
2023/06/01 03:28:16;;;;;;;9.70;5.20;;;;;;;;;;4992588;28;20030;-85
2023/06/01 03:30:42;;;;;;;12.95;4.78;;;;;;;;;;4988559;28;20088;-84
2023/06/01 03:33:08;;;;;;;12.50;4.60;;;;;;;;;;5005268;28;20118;-85
2023/06/01 03:35:34;;;;;;;7.15;4.32;;;;;;;;;;4991170;28;20499;-84
2023/06/01 03:38:00;;;;;;;8.25;3.83;;;;;;;;;;5010705;28;20127;-84
2023/06/01 03:40:26;;;;;;;8.23;4.38;;;;;;;;;;4988612;28;20045;-83
2023/06/01 03:42:52;;;;;;;10.52;4.03;;;;;;;;;;5010773;28;20482;-84
2023/06/01 03:45:18;;;;;;;9.35;4.72;;;;;;;;;;5012000;28;20077;-84
2023/06/01 03:47:45;;;;;;;10.20;4.70;;;;;;;;;;4994582;28;20081;-84
2023/06/01 03:50:11;;;;;;;12.13;4.82;;;;;;;;;;5014346;28;20095;-84
2023/06/01 03:52:37;;;;;;;6.95;4.53;;;;;;;;;;4990987;28;20045;-84
2023/06/01 03:55:13;;;;;;;10.38;4.10;;;;;;;;;;5012550;28;20038;-84
2023/06/01 03:57:39;;;;;;;8.88;4.80;;;;;;;;;;4999590;28;20044;-84
2023/06/01 04:00:17;;;;;;;10.35;4.75;;;;;;;;;;4991222;28;20125;-84
2023/06/01 04:02:51;;;;;;;11.77;5.45;;;;;;;;;;4996504;28;20491;-84
2023/06/01 04:05:18;;;;;;;9.70;4.47;;;;;;;;;;4995483;28;20042;-83
2023/06/01 04:07:48;;;;;;;12.68;5.00;;;;;;;;;;4989472;28;20277;-84
2023/06/01 04:10:14;;;;;;;13.27;4.72;;;;;;;;;;4995941;28;20072;-84
2023/06/01 04:12:44;;;;;;;12.18;4.90;;;;;;;;;;4995614;28;20124;-84
2023/06/01 04:15:14;;;;;;;9.30;4.10;;;;;;;;;;5010496;28;20053;-84
2023/06/01 04:17:40;;;;;;;9.25;4.00;;;;;;;;;;4977374;28;20049;-84
2023/06/01 04:20:11;;;;;;;8.25;4.35;;;;;;;;;;4992211;28;20052;-84
2023/06/01 04:22:38;;;;;;;7.90;4.00;;;;;;;;;;4999445;28;20064;-84
2023/06/01 04:25:08;;;;;;;11.15;4.88;;;;;;;;;;5023493;28;20388;-84
2023/06/01 04:27:37;;;;;;;8.30;3.85;;;;;;;;;;5016979;28;20048;-84
2023/06/01 04:30:07;;;;;;;11.40;4.28;;;12.00;99.90;;;;;;4994007;28;20049;-82
2023/06/01 04:32:37;;;;;;;11.00;4.57;;;;;;;;;;4995967;28;20119;-84
2023/06/01 04:35:07;;;;;;;6.25;4.20;;;12.00;99.90;;;;;;5017048;28;20038;-84
2023/06/01 04:37:40;;;;;;;11.07;4.13;;;;;;;;;;5006145;28;20084;-84
2023/06/01 04:40:09;;;;;;;10.57;4.53;;;;;;;;;;4990906;28;20144;-84
2023/06/01 04:42:41;;;;;;;9.65;4.00;;;;;;;;;;5010390;28;20045;-84
2023/06/01 04:45:07;;;;;;;10.77;5.57;;;12.00;99.90;;;;;;5014485;28;20100;-84
2023/06/01 04:47:37;;;;;;;9.07;4.28;;;;;;;;;;4990705;28;20375;-81
2023/06/01 04:50:05;;;;;;;9.80;4.13;;;;;;;;;;4989031;28;20108;-83
2023/06/01 04:52:31;;;;;;;11.07;3.55;;;;;;;;;;5009400;28;20045;-84
2023/06/01 04:54:57;;;;;;;9.43;4.65;;;;;;;;;;5005109;28;20451;-84
2023/06/01 04:57:23;;;;;;;10.45;3.80;;;;;;;;;;4996689;28;20120;-84
2023/06/01 04:59:50;;;;;;;10.38;4.07;;;;;;;;;;4991719;28;20073;-84
2023/06/01 05:02:16;;;;;;;8.77;5.13;;;;;;;;;;4980292;28;20228;-82
2023/06/01 05:04:42;;;;;;;7.15;3.85;;;;;;;;;;5013246;28;20046;-84
2023/06/01 05:07:08;;;;;;;8.00;3.92;;;;;;;;;;4988018;28;20048;-84
2023/06/01 05:09:34;;;;;;;6.20;3.70;;;;;;;;;;5004663;28;20484;-84
2023/06/01 05:12:00;;;;;;;7.18;4.07;;;;;;;;;;5011686;28;20056;-82
2023/06/01 05:14:26;;;;;;;8.80;4.20;;;;;;;;;;5022253;28;20438;-84
2023/06/01 05:16:52;;;;;;;7.13;4.05;;;;;;;;;;4981268;28;20042;-81
2023/06/01 05:19:18;;;;;;;10.85;4.82;;;;;;;;;;4992299;28;20415;-84
2023/06/01 05:21:44;;;;;;;9.90;4.72;;;;;;;;;;4998466;28;20179;-84
2023/06/01 05:24:10;;;;;;;10.15;4.40;;;;;;;;;;4999119;28;20041;-83
2023/06/01 05:26:36;;;;;;;11.77;4.38;;;;;;;;;;4992242;28;20048;-84
2023/06/01 05:29:02;;;;;;;8.55;4.57;;;;;;;;;;4997918;28;20049;-84
2023/06/01 05:31:29;;;;;;;12.52;4.60;;;;;;;;;;4998857;28;20042;-84
2023/06/01 05:33:55;;;;;;;9.02;4.50;;;;;;;;;;4992033;28;20049;-83
2023/06/01 05:36:21;;;;;;;14.30;4.45;;;;;;;;;;4997634;28;20107;-84
2023/06/01 05:38:47;;;;;;;7.88;3.92;;;;;;;;;;4995616;28;20041;-82
2023/06/01 05:41:13;;;;;;;11.68;4.82;;;;;;;;;;5011029;28;20403;-84
2023/06/01 05:43:39;;;;;;;9.25;3.88;;;;;;;;;;5011606;28;20042;-84
2023/06/01 05:46:06;;;;;;;10.82;4.22;;;;;;;;;;5009825;28;20641;-83
2023/06/01 05:48:32;;;;;;;11.60;4.90;;;;;;;;;;4980136;28;20494;-84
2023/06/01 05:50:58;;;;;;;12.35;5.65;;;;;;;;;;4996217;28;20074;-84
2023/06/01 05:53:24;;;;;;;11.07;4.57;;;;;;;;;;5009825;28;20037;-84
2023/06/01 05:55:51;;;;;;;10.43;4.40;;;;;;;;;;5002927;28;20558;-84
2023/06/01 05:58:17;;;;;;;8.77;4.20;;;;;;;;;;5017554;28;20041;-83
2023/06/01 06:00:44;;;;;;;11.82;4.22;;;;;;;;;;5022310;28;20506;-85
2023/06/01 06:03:10;;;;;;;10.07;4.82;;;;;;;;;;5024057;28;20127;-84
2023/06/01 06:05:36;;;;;;;7.97;4.38;;;;;;;;;;5003043;28;20128;-83
2023/06/01 06:08:02;;;;;;;8.82;4.47;;;;;;;;;;4991504;28;20045;-85
2023/06/01 06:10:28;;;;;;;15.43;4.88;;;;;;;;;;4996837;28;20056;-83
2023/06/01 06:12:55;;;;;;;11.75;4.05;;;;;;;;;;4999786;28;20029;-85
2023/06/01 06:15:21;;;;;;;15.68;4.90;;;;;;;;;;4998345;28;20776;-84
2023/06/01 06:17:47;;;;;;;10.40;4.45;;;;;;;;;;4996924;28;20069;-84
2023/06/01 06:20:15;;;;;;;10.07;4.38;;;;;;;;;;4993970;28;20064;-83
2023/06/01 06:22:41;;;;;;;14.30;4.13;;;;;;;;;;5007062;28;20446;-85
2023/06/01 06:25:08;;;;;;;11.50;4.75;;;;;;;;;;5010519;28;20049;-84
2023/06/01 06:27:34;;;;;;;13.80;4.10;;;;;;;;;;4985076;28;20029;-84
2023/06/01 06:30:00;;;;;;;9.18;3.65;;;;;;;;;;5007849;28;20159;-84
2023/06/01 06:32:26;;;;;;;12.32;5.00;;;;;;;;;;5015894;28;20092;-85
2023/06/01 06:34:52;;;;;;;9.68;4.47;;;;;;;;;;5018525;28;20736;-84
2023/06/01 06:37:18;;;;;;;13.35;5.03;;;;;;;;;;5006084;28;20135;-84
2023/06/01 06:39:45;;;;;;;9.55;4.72;;;;;;;;;;4997674;28;20053;-84
2023/06/01 06:42:11;;;;;;;7.90;4.30;;;;;;;;;;4987502;28;20054;-84
2023/06/01 06:44:37;;;;;;;11.27;4.35;;;;;;;;;;4995783;28;20147;-83
2023/06/01 06:47:03;;;;;;;10.15;4.50;;;;;;;;;;4990529;28;20415;-84
2023/06/01 06:49:28;;;;;;;10.02;4.00;;;;;;;;;;4999151;28;20145;-82
2023/06/01 06:51:55;;;;;;;7.30;4.10;;;;;;;;;;5004920;28;20124;-84
2023/06/01 06:54:22;;;;;;;7.68;3.10;;;;;;;;;;4998760;28;20504;-83
2023/06/01 06:56:48;;;;;;;12.77;3.35;;;;;;;;;;5011716;28;20061;-83
2023/06/01 06:59:14;;;;;;;8.80;3.28;;;;;;;;;;5009886;28;20038;-80
2023/06/01 07:01:40;;;;;;;11.25;3.08;;;;;;;;;;4995089;28;20449;-83
2023/06/01 07:04:07;;;;;;;14.70;3.95;;;;;;;;;;5022058;28;20048;-83
2023/06/01 07:06:33;;;;;;;7.40;3.30;;;;;;;;;;4998801;28;20037;-83
2023/06/01 07:08:59;;;;;;;12.43;3.10;;;;;;;;;;4990256;28;20112;-81
2023/06/01 07:11:26;;;;;;;13.40;2.78;;;;;;;;;;5008652;28;20044;-83
2023/06/01 07:13:53;;;;;;;9.18;3.15;;;;;;;;;;5016298;28;20088;-83
2023/06/01 07:16:19;;;;;;;8.32;3.47;;;;;;;;;;5019392;28;20171;-83
2023/06/01 07:18:44;;;;;;;11.00;3.53;;;;;;;;;;4995672;28;20136;-80
2023/06/01 07:21:10;;;;;;;8.25;2.83;;;;;;;;;;4988958;28;20037;-83
2023/06/01 07:23:36;;;;;;;7.97;2.78;;;;;;;;;;4991534;28;20081;-83
2023/06/01 07:26:02;;;;;;;8.38;3.00;;;;;;;;;;5018565;28;20123;-83
2023/06/01 07:28:30;;;;;;;8.35;2.97;;;;;;;;;;4985771;28;20506;-83
2023/06/01 07:30:56;;;;;;;9.40;3.10;;;;;;;;;;4990526;28;20163;-83
2023/06/01 07:33:22;;;;;;;7.10;2.83;;;;;;;;;;4995558;28;20038;-83
2023/06/01 07:35:52;;;;;;;6.78;3.05;;;;;;;;;;4996174;28;20046;-83
2023/06/01 07:38:19;;;;;;;8.93;3.42;;;;;;;;;;4996856;28;20084;-83
2023/06/01 07:40:45;;;;;;;13.00;4.28;;;;;;;;;;4988225;28;20129;-84
2023/06/01 07:43:11;;;;;;;11.90;4.25;;;;;;;;;;5008017;28;20084;-84
2023/06/01 07:45:37;;;;;;;7.32;3.40;;;;;;;;;;4988113;28;20129;-86
2023/06/01 07:48:03;;;;;;;12.63;3.35;;;;;;;;;;5013811;28;20045;-87
2023/06/01 07:50:30;;;;;;;7.28;3.08;;;;;;;;;;4984715;28;20044;-86
2023/06/01 07:52:57;;;;;;;10.05;2.88;;;;;;;;;;5000831;28;20434;-86
2023/06/01 07:55:23;;;;;;;7.10;3.10;;;;;;;;;;5022579;28;20041;-86
2023/06/01 07:57:50;;;;;;;7.50;2.70;;;;;;;;;;5014121;28;20037;-85
2023/06/01 08:00:17;;;;;;;7.00;3.40;;;;;;;;;;5016485;28;20171;-86
2023/06/01 08:02:43;;;;;;;6.25;2.53;;;;;;;;;;5010679;28;20499;-86
2023/06/01 08:05:10;;;;;;;11.25;3.30;;;;;;;;;;4988715;28;20112;-87
2023/06/01 08:07:37;;;;;;;8.02;3.25;;;;;;;;;;5005149;28;20576;-87
2023/06/01 08:10:05;;;;;;;10.75;3.30;;;12.90;99.90;;;;;;4991777;28;20091;-85
2023/06/01 08:12:31;;;;;;;5.30;2.67;;;;;;;;;;5027310;28;20045;-86
2023/06/01 08:14:58;;;;;;;5.68;2.60;;;;;;;;;;4999153;28;20049;-87
2023/06/01 08:17:24;;;;;;;6.50;3.00;;;;;;;;;;5002921;28;20915;-86
2023/06/01 08:19:50;;;;;;;7.65;3.45;;;;;;;;;;4994748;28;20072;-85
2023/06/01 08:22:20;;;;;;;8.18;3.28;;;;;;;;;;5021288;28;20046;-86
2023/06/01 08:24:47;;;;;;;4.35;2.30;;;;;;;;;;4993065;28;20053;-85
2023/06/01 08:27:31;;;;;;;6.75;2.92;;;;;;;;;;4997349;28;20073;-86
2023/06/01 08:29:57;;;;;;;5.75;2.53;;;;;;;;;;5009517;28;20041;-86
2023/06/01 08:32:23;;;;;;;7.07;2.60;;;;;;;;;;5018772;28;20038;-86
2023/06/01 08:34:49;;;;;;;10.07;3.20;;;13.10;99.90;;;;;;5003383;28;20052;-84
2023/06/01 08:37:16;;;;;;;6.07;2.97;;;;;;;;;;5027549;28;20138;-85
2023/06/01 08:39:42;;;;;;;6.03;3.03;;;;;;;;;;4984809;28;20518;-86
2023/06/01 08:42:09;;;;;;;4.25;2.47;;;;;;;;;;4986458;28;20045;-85
2023/06/01 08:44:39;;;;;;;6.65;3.22;;;;;;;;;;5022368;28;20495;-86
2023/06/01 08:47:06;;;;;;;7.28;2.72;;;;;;;;;;4992141;28;20211;-84
2023/06/01 08:49:33;;;;;;;6.70;2.80;;;13.40;99.90;;;;;;4991548;28;20038;-86
2023/06/01 08:52:08;;;;;;;5.80;2.50;;;13.20;99.90;;;;;;4991854;28;20733;-88
2023/06/01 08:54:35;;;;;;;6.57;2.60;;;;;;;;;;5004492;28;20045;-87
2023/06/01 08:57:03;;;;;;;4.10;2.30;;;;;;;;;;5003020;28;20046;-85
2023/06/01 08:59:30;;;;;;;7.68;2.38;;;;;;;;;;4987240;28;20037;-86
2023/06/01 09:01:57;;;;;;;2.95;1.90;;;13.20;99.90;;;;;;4981645;28;20140;-87
2023/06/01 09:04:23;;;;;;;4.68;1.80;;;;;;;;;;4993683;28;20491;-87
2023/06/01 09:06:49;;;;;;;3.17;2.05;;;;;;;;;;5007124;28;20087;-86
2023/06/01 09:09:15;;;;;;;3.35;1.40;;;;;;;;;;5002019;28;20033;-86
2023/06/01 09:11:44;;;;;;;2.97;1.80;;;;;;;;;;4981747;28;20045;-86
2023/06/01 09:14:23;;;;;;;2.85;1.80;;;;;;;;;;5008789;28;20049;-86
2023/06/01 09:16:49;;;;;;;3.80;1.92;;;;;;;;;;5022408;28;20565;-86
2023/06/01 09:19:15;;;;;;;4.28;1.80;;;;;;;;;;4988314;28;20066;-86
2023/06/01 09:21:55;;;;;;;3.85;2.03;;;;;;;;;;5004144;28;20096;-86
2023/06/01 09:24:24;;;;;;;6.80;2.60;;;;;;;;;;4993656;28;20041;-86
2023/06/01 09:26:51;;;;;;;7.25;2.47;;;;;;;;;;5005311;28;20549;-86
2023/06/01 09:29:18;;;;;;;6.03;2.60;;;;;;;;;;5025102;28;20049;-86
2023/06/01 09:31:46;;;;;;;6.28;2.75;;;13.00;99.90;;;;;;5004150;28;20132;-87
2023/06/01 09:34:15;;;;;;;7.05;2.80;;;;;;;;;;4997304;28;20115;-88
2023/06/01 09:36:41;;;;;;;9.65;3.38;;;;;;;;;;4989614;28;20791;-86
2023/06/01 09:39:11;;;;;;;10.30;3.03;;;;;;;;;;5004153;28;20046;-85
2023/06/01 09:41:47;;;;;;;12.57;3.08;;;13.20;99.90;;;;;;5005612;28;20408;-85
2023/06/01 09:44:14;;;;;;;8.35;3.88;;;;;;;;;;4998907;28;20041;-85
2023/06/01 09:46:47;;;;;;;8.68;3.47;;;;;;;;;;5006631;28;20438;-86
2023/06/01 09:49:19;;;;;;;9.48;3.17;;;;;;;;;;5015620;28;20049;-86
2023/06/01 09:51:45;;;;;;;10.30;3.50;;;;;;;;;;5017810;28;20043;-86
2023/06/01 09:54:22;;;;;;;10.02;3.55;;;13.00;99.90;;;;;;5006391;28;20618;-86
2023/06/01 09:56:48;;;;;;;14.27;3.42;;;;;;;;;;5004660;28;20046;-85
2023/06/01 09:59:14;;;;;;;6.10;2.85;;;;;;;;;;5007439;28;20045;-86
2023/06/01 10:01:41;;;;;;;7.55;2.95;;;;;;;;;;5000966;28;20036;-86
2023/06/01 10:04:07;;;;;;;9.88;3.88;;;;;;;;;;4986496;28;20486;-87
2023/06/01 10:06:38;;;;;;;9.73;3.22;;;13.10;99.90;;;;;;4998378;28;20049;-86
2023/06/01 10:09:06;;;;;;;14.45;3.33;;;;;;;;;;4986429;28;20132;-87
2023/06/01 10:11:32;;;;;;;11.77;3.42;;;;;;;;;;5005148;28;20242;-87
2023/06/01 10:14:00;;;;;;;9.60;3.30;;;;;;;;;;4998638;28;20087;-87
2023/06/01 10:16:26;;;;;;;10.57;3.42;;;;;;;;;;5006758;28;20042;-88
2023/06/01 10:18:52;;;;;;;11.30;3.20;;;;;;;;;;5011362;28;20077;-87
2023/06/01 10:21:18;;;;;;;7.53;3.30;;;;;;;;;;5024891;28;20085;-86
2023/06/01 10:23:44;;;;;;;12.45;3.50;;;;;;;;;;4989280;28;20041;-86
2023/06/01 10:26:14;;;;;;;8.73;3.42;;;;;;;;;;5008129;28;20052;-87
2023/06/01 10:28:41;;;;;;;11.95;3.42;;;13.20;99.90;;;;;;5003418;28;20046;-87
2023/06/01 10:31:39;;;;;;;9.18;3.40;;;13.20;99.90;;;;;;5006393;28;20161;-87
2023/06/01 10:34:06;;;;;;;7.80;2.50;;;13.00;99.90;;;;;;5004567;28;20041;-88
2023/06/01 10:36:51;;;;;;;8.20;2.70;;;;;;;;;;5006436;28;20552;-88
2023/06/01 10:39:33;;;;;;;8.77;3.13;;;;;;;;;;5018303;28;20050;-88
2023/06/01 10:42:17;;;;;;;13.30;3.53;;;;;;;;;;4996768;28;20104;-88
2023/06/01 10:44:44;;;;;;;10.98;3.22;;;;;;;;;;4993246;28;20073;-87
2023/06/01 10:47:17;;;;;;;6.97;3.10;;;;;;;;;;5007161;28;20114;-88
2023/06/01 10:49:49;;;;;;;5.68;2.45;;;;;;;;;;5006638;28;20068;-88
2023/06/01 10:52:38;;;;;;;10.45;3.03;;;;;;;;;;4998962;28;20450;-88
2023/06/01 10:55:07;;;;;;;11.27;3.47;;;;;;;;;;5005757;28;20098;-87
2023/06/01 10:57:42;;;;;;;7.65;2.70;;;;;;;;;;4993777;28;20131;-88
2023/06/01 11:00:17;;;;;;;11.45;2.70;;;;;;;;;;5002773;28;20103;-88
2023/06/01 11:02:59;;;;;;;9.05;2.78;;;;;;;;;;4996922;28;20042;-87
2023/06/01 11:05:46;;;;;;;9.18;3.05;;;;;;;;;;5011238;28;20070;-88
2023/06/01 11:08:42;;;;;;;8.48;2.40;;;;;;;;;;5010800;28;20132;-87
2023/06/01 11:11:27;;;;;;;5.72;2.40;;;;;;;;;;5004264;28;20046;-87
2023/06/01 11:14:06;;;;;;;7.88;2.60;;;;;;;;;;5010892;28;20045;-87
2023/06/01 11:16:33;;;;;;;6.30;2.95;;;;;;;;;;5007502;28;20629;-87
2023/06/01 11:19:00;;;;;;;9.85;3.10;;;;;;;;;;5006141;28;20105;-87
2023/06/01 11:21:37;;;;;;;7.63;3.00;;;;;;;;;;5012044;28;20419;-87
2023/06/01 11:24:49;;;;;;;;;;;;;;;;;;;;;
2023/06/01 11:27:18;;;;;;;9.00;3.05;;;;;;;;;;5007715;28;20058;-87
2023/06/01 11:30:05;;;;;;;7.80;2.70;;;;;;;;;;4992553;28;20405;-87
2023/06/01 11:32:49;;;;;;;;;;;;;;;;;;;;;
2023/06/01 11:35:27;;;;;;;10.50;2.90;;;;;;;;;;5007268;28;20053;-88
2023/06/01 11:37:55;;;;;;;6.50;2.80;;;;;;;;;;4989296;28;20058;-88
2023/06/01 11:40:21;;;;;;;9.48;3.08;;;;;;;;;;4959259;28;20126;-88
2023/06/01 11:42:47;;;;;;;10.25;3.67;;;;;;;;;;4966900;28;20125;-89
2023/06/01 11:45:18;;;;;;;13.70;3.67;;;;;;;;;;4983650;28;20536;-88
2023/06/01 11:47:45;;;;;;;12.25;4.10;;;;;;;;;;4962610;28;20112;-88
2023/06/01 11:50:26;;;;;;;8.15;2.65;;;;;;;;;;4979081;28;20038;-87
2023/06/01 11:52:52;;;;;;;10.05;2.92;;;;;;;;;;4963891;28;20682;-88
2023/06/01 11:55:18;;;;;;;8.82;2.90;;;;;;;;;;4949739;28;20042;-88
2023/06/01 11:57:44;;;;;;;11.38;3.05;;;;;;;;;;4966696;28;20062;-85
2023/06/01 12:00:14;;;;;;;9.70;3.45;;;;;;;;;;4959130;28;20051;-88
2023/06/01 12:02:41;;;;;;;15.77;3.63;;;;;;;;;;4965866;28;20069;-87
2023/06/01 12:05:08;;;;;;;6.07;2.75;;;;;;;;;;4962249;28;20055;-87
2023/06/01 12:07:50;;;;;;;8.93;3.08;;;14.10;99.90;;;;;;4963262;28;20039;-87
2023/06/01 12:10:18;;;;;;;10.48;4.00;;;;;;;;;;4979172;28;20046;-87
2023/06/01 12:12:45;;;;;;;9.45;3.08;;;;;;;;;;4983722;28;20046;-88
2023/06/01 12:15:11;;;;;;;10.90;3.00;;;14.30;99.90;;;;;;4967717;28;20050;-88
2023/06/01 12:17:49;;;;;;;12.43;3.92;;;;;;;;;;4968187;28;20038;-87
2023/06/01 12:20:26;;;;;;;11.35;3.20;;;;;;;;;;4984132;28;20139;-88
2023/06/01 12:22:53;;;;;;;7.05;2.42;;;;;;;;;;4982221;28;20049;-87
2023/06/01 12:25:19;;;;;;;9.40;2.95;;;;;;;;;;4966442;28;20043;-88
2023/06/01 12:27:59;;;;;;;8.80;2.78;;;;;;;;;;4981565;28;20145;-87
2023/06/01 12:30:25;;;;;;;8.65;2.90;;;;;;;;;;4976887;28;20038;-88
2023/06/01 12:32:51;;;;;;;6.82;2.70;;;;;;;;;;4987107;28;20039;-87
2023/06/01 12:35:17;;;;;;;12.10;4.00;;;;;;;;;;4987068;28;20050;-87
2023/06/01 12:37:44;;;;;;;11.05;3.15;;;;;;;;;;4984538;28;20540;-87
2023/06/01 12:40:10;;;;;;;11.55;3.20;;;;;;;;;;4979877;28;20058;-87
2023/06/01 12:42:38;;;;;;;11.32;3.63;;;14.50;99.90;;;;;;4979555;28;20137;-86
2023/06/01 12:45:05;;;;;;;5.85;2.50;;;14.50;99.90;;;;;;4969889;28;20053;-85
2023/06/01 12:47:42;;;;;;;8.48;3.53;;;;;;;;;;4970937;28;20121;-87
2023/06/01 12:50:09;;;;;;;4.95;2.38;;;;;;;;;;4981096;28;20670;-87
2023/06/01 12:52:35;;;;;;;7.65;2.88;;;;;;;;;;4983900;28;20572;-87
2023/06/01 12:55:03;;;;;;;7.05;2.30;;;;;;;;;;4980787;28;20081;-87
2023/06/01 12:57:30;;;;;;;7.10;2.97;;;;;;;;;;4987258;28;20455;-87
2023/06/01 12:59:56;;;;;;;7.25;2.88;;;;;;;;;;4989006;28;20042;-87
2023/06/01 13:02:23;;;;;;;5.72;2.45;;;;;;;;;;4972275;28;20097;-87
2023/06/01 13:04:49;;;;;;;8.48;2.92;;;;;;;;;;4968555;28;20142;-88
2023/06/01 13:07:15;;;;;;;9.60;2.70;;;;;;;;;;4985428;28;20046;-87
2023/06/01 13:09:41;;;;;;;7.28;3.10;;;;;;;;;;4972142;28;20038;-87
2023/06/01 13:12:09;;;;;;;9.90;3.08;;;;;;;;;;4972203;28;20043;-87
2023/06/01 13:14:35;;;;;;;10.82;3.58;;;;;;;;;;4994572;28;20088;-87
2023/06/01 13:17:03;;;;;;;9.57;3.08;;;;;;;;;;4962500;28;20046;-87
2023/06/01 13:19:29;;;;;;;8.18;2.80;;;;;;;;;;4988413;28;20116;-87
2023/06/01 13:21:56;;;;;;;9.07;2.95;;;;;;;;;;4984679;28;20094;-88
2023/06/01 13:24:34;;;;;;;9.07;2.72;;;;;;;;;;4987194;28;20117;-89
2023/06/01 13:27:08;;;;;;;11.87;2.70;;;;;;;;;;4981276;28;20464;-88
2023/06/01 13:33:14;;;;;;;6.67;2.83;;;;;;;;;;4978901;28;20050;-88
2023/06/01 13:35:49;;;;;;;7.93;2.80;;;;;;;;;;4948593;28;20093;-89
2023/06/01 13:38:38;;;;;;;7.22;3.00;;;;;;;;;;4948356;28;20047;-89
2023/06/01 13:41:13;;;;;;;8.05;3.15;;;;;;;;;;4952763;28;20120;-89
2023/06/01 13:43:42;;;;;;;8.98;2.65;;;;;;;;;;4944339;28;20754;-89
2023/06/01 13:46:09;;;;;;;8.95;3.65;;;;;;;;;;4957682;28;20095;-89
2023/06/01 13:48:38;;;;;;;8.15;2.47;;;;;;;;;;4948894;28;20140;-89
2023/06/01 13:51:05;;;;;;;8.80;2.92;;;;;;;;;;4947075;28;20062;-89
2023/06/01 13:53:38;;;;;;;9.88;2.90;;;;;;;;;;4966710;28;20038;-89
2023/06/01 13:56:05;;;;;;;12.68;3.75;;;;;;;;;;4960607;28;20050;-88
2023/06/01 13:58:34;;;;;;;9.82;3.65;;;;;;;;;;4946751;28;20045;-89
2023/06/01 14:01:00;;;;;;;8.85;3.30;;;;;;;;;;4964012;28;20053;-88
2023/06/01 14:03:26;;;;;;;9.68;3.35;;;;;;;;;;4965257;28;20042;-92
2023/06/01 14:05:53;;;;;;;6.68;3.05;;;;;;;;;;4986549;28;20053;-89
2023/06/01 14:08:19;;;;;;;10.75;2.85;;;;;;;;;;4963839;28;20038;-90
2023/06/01 14:10:45;;;;;;;11.77;3.63;;;;;;;;;;4964017;28;20058;-89
2023/06/01 14:13:11;;;;;;;7.18;2.65;;;;;;;;;;4963788;28;20039;-90
2023/06/01 14:15:37;;;;;;;8.05;2.97;;;;;;;;;;4975110;28;20046;-91
2023/06/01 14:18:03;;;;;;;7.90;3.22;;;;;;;;;;4968326;28;20046;-90
2023/06/01 14:20:30;;;;;;;10.32;3.03;;;;;;;;;;4951825;28;20086;-90
2023/06/01 14:22:56;;;;;;;8.95;3.25;;;;;;;;;;4963816;28;20057;-90
2023/06/01 14:25:22;;;;;;;7.38;3.58;;;;;;;;;;4970897;28;20046;-89
2023/06/01 14:27:47;;;;;;;8.60;3.17;;;;;;;;;;4953662;28;20046;-89
2023/06/01 14:30:14;;;;;;;8.48;2.53;;;;;;;;;;4971044;28;20043;-91
2023/06/01 14:32:40;;;;;;;10.52;3.05;;;;;;;;;;4960382;28;20047;-89
2023/06/01 14:35:07;;;;;;;11.13;3.75;;;;;;;;;;4966483;28;20323;-89
2023/06/01 14:37:33;;;;;;;7.10;2.75;;;;;;;;;;4966245;28;20168;-92
2023/06/01 14:39:59;;;;;;;7.88;2.50;;;;;;;;;;4976470;28;20075;-91